createdAt,value
2018-11-10T00:01:59.952Z,10.78
2018-11-10T00:04:31.558Z,10.69
2018-11-10T00:06:59.313Z,10.80
2018-11-10T00:09:27.040Z,10.62
2018-11-10T00:11:54.857Z,10.66
2018-11-10T00:14:22.578Z,10.76
2018-11-10T00:16:50.292Z,10.74
2018-11-10T00:19:18.067Z,10.77
2018-11-10T00:21:45.807Z,10.53
2018-11-10T00:24:13.558Z,10.51
2018-11-10T00:26:41.298Z,10.50
2018-11-10T00:29:09.015Z,10.73
2018-11-10T00:31:36.778Z,10.72
2018-11-10T00:34:05.011Z,10.60
2018-11-10T00:36:32.767Z,10.77
2018-11-10T00:39:00.539Z,10.83
2018-11-10T00:41:28.299Z,10.98
2018-11-10T00:43:56.033Z,10.71
2018-11-10T00:46:23.854Z,10.52
2018-11-10T00:48:51.590Z,10.83
2018-11-10T00:51:19.374Z,10.91
2018-11-10T00:53:47.126Z,10.96
2018-11-10T00:56:14.879Z,10.76
2018-11-10T00:58:42.630Z,10.59
2018-11-10T01:01:10.355Z,10.84
2018-11-10T01:03:38.195Z,10.84
2018-11-10T01:06:05.951Z,10.78
2018-11-10T01:08:33.683Z,10.67
2018-11-10T01:11:01.397Z,10.87
2018-11-10T01:13:29.203Z,11.03
2018-11-10T01:15:56.929Z,11.02
2018-11-10T01:18:24.651Z,10.83
2018-11-10T01:20:52.394Z,10.52
2018-11-10T01:23:20.123Z,10.65
2018-11-10T01:25:47.867Z,10.55
2018-11-10T01:28:15.610Z,10.53
2018-11-10T01:30:43.347Z,10.78
2018-11-10T01:33:11.088Z,10.64
2018-11-10T01:35:38.826Z,10.77
2018-11-10T01:38:06.614Z,10.98
2018-11-10T01:40:34.351Z,11.14
2018-11-10T01:43:02.103Z,10.86
2018-11-10T01:45:29.846Z,10.55
2018-11-10T01:47:57.594Z,10.60
2018-11-10T01:50:25.310Z,10.64
2018-11-10T01:52:53.026Z,10.77
2018-11-10T01:55:20.786Z,11.07
2018-11-10T01:57:48.521Z,11.09
2018-11-10T02:00:17.441Z,10.80
2018-11-10T02:02:45.913Z,11.04
2018-11-10T02:05:14.070Z,11.13
2018-11-10T02:07:41.801Z,11.15
2018-11-10T02:10:10.443Z,11.09
2018-11-10T02:12:38.236Z,10.78
2018-11-10T02:15:08.233Z,10.71
2018-11-10T02:17:35.964Z,10.96
2018-11-10T02:20:04.499Z,11.13
2018-11-10T02:22:32.249Z,11.20
2018-11-10T02:25:00.070Z,11.00
2018-11-10T02:27:27.857Z,10.74
2018-11-10T02:29:55.641Z,10.89
2018-11-10T02:32:23.387Z,10.87
2018-11-10T02:34:51.849Z,10.85
2018-11-10T02:37:19.591Z,10.84
2018-11-10T02:39:47.325Z,10.87
2018-11-10T02:42:15.074Z,10.77
2018-11-10T02:44:42.798Z,10.41
2018-11-10T02:47:10.515Z,10.45
2018-11-10T02:49:38.242Z,10.57
2018-11-10T02:52:05.998Z,10.87
2018-11-10T02:54:33.734Z,10.65
2018-11-10T02:57:01.466Z,10.77
2018-11-10T02:59:29.209Z,10.63
2018-11-10T03:01:56.934Z,10.50
2018-11-10T03:04:24.681Z,10.22
2018-11-10T03:06:52.415Z,10.18
2018-11-10T03:09:20.146Z,10.34
2018-11-10T03:11:47.886Z,10.24
2018-11-10T03:14:15.684Z,10.51
2018-11-10T03:16:43.415Z,10.50
2018-11-10T03:19:11.152Z,10.26
2018-11-10T03:21:38.886Z,10.16
2018-11-10T03:24:06.611Z,10.24
2018-11-10T03:26:34.338Z,10.28
2018-11-10T03:29:02.058Z,10.26
2018-11-10T03:31:29.786Z,10.01
2018-11-10T03:33:57.504Z,10.20
2018-11-10T03:36:25.256Z,10.16
2018-11-10T03:38:52.990Z,10.10
2018-11-10T03:41:20.760Z,9.92
2018-11-10T03:43:48.486Z,10.07
2018-11-10T03:46:16.263Z,10.02
2018-11-10T03:48:43.991Z,10.09
2018-11-10T03:51:11.782Z,9.81
2018-11-10T03:53:39.979Z,9.91
2018-11-10T03:56:08.037Z,9.80
2018-11-10T03:58:35.818Z,9.83
2018-11-10T04:01:03.655Z,9.90
2018-11-10T04:03:31.467Z,9.81
2018-11-10T04:05:59.211Z,9.74
2018-11-10T04:08:26.925Z,9.61
2018-11-10T04:10:54.656Z,9.62
2018-11-10T04:13:22.406Z,9.67
2018-11-10T04:15:50.126Z,9.85
2018-11-10T04:18:17.838Z,9.62
2018-11-10T04:20:45.567Z,9.42
2018-11-10T04:23:13.279Z,9.42
2018-11-10T04:25:41.011Z,9.84
2018-11-10T04:28:08.735Z,9.71
2018-11-10T04:30:36.460Z,9.53
2018-11-10T04:33:04.474Z,9.62
2018-11-10T04:35:32.182Z,9.60
2018-11-10T04:37:59.918Z,9.37
2018-11-10T04:40:27.645Z,9.75
2018-11-10T04:42:55.417Z,9.68
2018-11-10T04:45:23.137Z,9.36
2018-11-10T04:47:50.902Z,9.25
2018-11-10T04:50:18.880Z,9.36
2018-11-10T04:52:46.600Z,9.38
2018-11-10T04:55:14.327Z,9.15
2018-11-10T04:57:42.054Z,9.19
2018-11-10T05:00:12.463Z,9.41
2018-11-10T05:02:40.406Z,9.78
2018-11-10T05:05:08.266Z,9.83
2018-11-10T05:07:36.090Z,9.68
2018-11-10T05:10:03.946Z,9.54
2018-11-10T05:12:31.677Z,9.33
2018-11-10T05:14:59.419Z,9.36
2018-11-10T05:17:27.142Z,9.45
2018-11-10T05:19:54.868Z,9.31
2018-11-10T05:22:22.918Z,9.38
2018-11-10T05:24:50.654Z,9.48
2018-11-10T05:27:18.401Z,9.45
2018-11-10T05:29:46.135Z,9.74
2018-11-10T05:32:13.878Z,9.81
2018-11-10T05:34:41.604Z,9.71
2018-11-10T05:37:09.343Z,9.57
2018-11-10T05:39:37.058Z,9.60
2018-11-10T05:42:04.806Z,9.47
2018-11-10T05:44:32.524Z,9.55
2018-11-10T05:47:00.246Z,9.74
2018-11-10T05:49:27.962Z,9.82
2018-11-10T05:51:55.698Z,9.82
2018-11-10T05:54:23.402Z,9.80
2018-11-10T05:56:51.158Z,9.68
2018-11-10T05:59:18.930Z,9.86
2018-11-10T06:01:46.692Z,9.72
2018-11-10T06:04:14.399Z,9.70
2018-11-10T06:06:42.120Z,9.84
2018-11-10T06:09:10.966Z,10.01
2018-11-10T06:11:39.982Z,10.06
2018-11-10T06:14:07.893Z,10.04
2018-11-10T06:16:35.856Z,10.09
2018-11-10T06:19:03.599Z,10.15
2018-11-10T06:21:31.330Z,10.17
2018-11-10T06:23:59.059Z,10.22
2018-11-10T06:26:27.319Z,10.16
2018-11-10T06:28:55.055Z,10.30
2018-11-10T06:31:22.771Z,10.56
2018-11-10T06:33:50.554Z,10.45
2018-11-10T06:36:18.481Z,10.29
2018-11-10T06:38:46.234Z,10.37
2018-11-10T06:41:13.975Z,10.64
2018-11-10T06:43:41.724Z,10.64
2018-11-10T06:46:09.443Z,10.92
2018-11-10T06:48:37.194Z,10.94
2018-11-10T06:51:05.015Z,10.65
2018-11-10T06:53:32.743Z,10.67
2018-11-10T06:56:00.447Z,10.72
2018-11-10T06:58:28.178Z,10.74
2018-11-10T07:00:55.944Z,10.78
2018-11-10T07:03:23.715Z,10.91
2018-11-10T07:05:51.454Z,10.98
2018-11-10T07:08:19.910Z,10.99
2018-11-10T07:10:48.081Z,11.05
2018-11-10T07:13:15.836Z,11.02
2018-11-10T07:15:43.610Z,11.73
2018-11-10T07:18:11.446Z,11.53
2018-11-10T07:20:39.105Z,11.34
2018-11-10T07:23:06.843Z,11.34
2018-11-10T07:25:34.607Z,11.39
2018-11-10T07:28:02.364Z,11.44
2018-11-10T07:30:30.099Z,11.51
2018-11-10T07:32:57.843Z,11.52
2018-11-10T07:35:25.587Z,11.52
2018-11-10T07:37:53.319Z,11.67
2018-11-10T07:40:21.081Z,11.78
2018-11-10T07:42:48.886Z,11.84
2018-11-10T07:45:16.621Z,11.78
2018-11-10T07:47:45.277Z,11.86
2018-11-10T07:50:13.028Z,11.86
2018-11-10T07:52:41.403Z,11.95
2018-11-10T07:55:10.630Z,11.97
2018-11-10T07:57:38.377Z,11.97
2018-11-10T08:00:08.926Z,12.02
2018-11-10T08:02:36.662Z,12.05
2018-11-10T08:05:04.923Z,11.92
2018-11-10T08:07:32.716Z,12.07
2018-11-10T08:10:00.518Z,12.08
2018-11-10T08:12:28.229Z,12.19
2018-11-10T08:14:55.966Z,12.04
2018-11-10T08:17:23.692Z,11.99
2018-11-10T08:19:51.442Z,11.97
2018-11-10T08:22:19.212Z,11.97
2018-11-10T08:24:46.940Z,12.07
2018-11-10T08:27:14.679Z,12.06
2018-11-10T08:29:42.398Z,11.95
2018-11-10T08:32:10.123Z,12.00
2018-11-10T08:34:37.866Z,12.01
2018-11-10T08:37:05.682Z,12.06
2018-11-10T08:39:33.439Z,11.95
2018-11-10T08:42:01.203Z,11.97
2018-11-10T08:44:28.930Z,12.07
2018-11-10T08:46:56.698Z,12.05
2018-11-10T08:49:24.517Z,12.12
2018-11-10T08:51:53.171Z,12.20
2018-11-10T08:54:20.947Z,12.27
2018-11-10T08:56:48.741Z,12.22
2018-11-10T08:59:16.549Z,12.23
2018-11-10T09:01:44.290Z,12.31
2018-11-10T09:04:12.027Z,12.34
2018-11-10T09:06:39.783Z,12.32
2018-11-10T09:09:09.022Z,12.27
2018-11-10T09:11:36.944Z,12.30
2018-11-10T09:14:04.925Z,12.34
2018-11-10T09:16:32.671Z,12.37
2018-11-10T09:19:00.415Z,12.58
2018-11-10T09:21:28.259Z,12.46
2018-11-10T09:23:55.928Z,12.59
2018-11-10T09:26:24.198Z,12.69
2018-11-10T09:28:51.953Z,12.51
2018-11-10T09:31:19.695Z,12.56
2018-11-10T09:33:47.425Z,12.64
2018-11-10T09:36:15.168Z,12.48
2018-11-10T09:38:42.955Z,12.58
2018-11-10T09:41:10.722Z,12.62
2018-11-10T09:43:38.447Z,12.68
2018-11-10T09:46:06.402Z,12.71
2018-11-10T09:48:34.186Z,12.78
2018-11-10T09:51:02.006Z,12.85
2018-11-10T09:53:29.769Z,12.87
2018-11-10T09:55:57.534Z,12.86
2018-11-10T09:58:25.350Z,12.80
2018-11-10T10:00:53.148Z,12.77
2018-11-10T10:03:20.891Z,12.84
2018-11-10T10:05:48.643Z,13.01
2018-11-10T10:08:16.397Z,13.08
2018-11-10T10:10:44.158Z,13.12
2018-11-10T10:13:11.919Z,13.19
2018-11-10T10:15:39.654Z,13.22
2018-11-10T10:18:07.417Z,13.21
2018-11-10T10:20:35.183Z,13.25
2018-11-10T10:23:02.971Z,13.32
2018-11-10T10:25:30.710Z,13.33
2018-11-10T10:27:58.463Z,13.34
2018-11-10T10:30:26.499Z,13.31
2018-11-10T10:32:54.266Z,13.29
2018-11-10T10:35:22.162Z,13.35
2018-11-10T10:37:50.634Z,13.43
2018-11-10T10:40:18.568Z,13.46
2018-11-10T10:42:46.892Z,13.61
2018-11-10T10:45:16.114Z,13.70
2018-11-10T10:47:44.238Z,13.77
2018-11-10T10:50:15.231Z,13.95
2018-11-10T10:52:43.009Z,13.92
2018-11-10T10:55:12.866Z,13.89
2018-11-10T10:57:40.926Z,13.86
2018-11-10T11:00:15.879Z,14.01
2018-11-10T11:02:49.123Z,14.02
2018-11-10T11:05:23.172Z,14.19
2018-11-10T11:07:51.049Z,14.19
2018-11-10T11:10:18.922Z,14.02
2018-11-10T11:12:46.641Z,14.10
2018-11-10T11:15:14.415Z,14.08
2018-11-10T11:17:42.132Z,14.02
2018-11-10T11:20:10.159Z,13.99
2018-11-10T11:22:37.899Z,13.95
2018-11-10T11:25:05.832Z,13.92
2018-11-10T11:27:33.597Z,14.04
2018-11-10T11:30:01.822Z,14.08
2018-11-10T11:32:29.558Z,14.13
2018-11-10T11:34:57.308Z,14.21
2018-11-10T11:37:25.052Z,14.20
2018-11-10T11:39:52.827Z,14.23
2018-11-10T11:42:21.862Z,14.30
2018-11-10T11:44:49.610Z,14.38
2018-11-10T11:47:17.382Z,14.37
2018-11-10T11:49:45.182Z,14.34
2018-11-10T11:52:12.897Z,14.29
2018-11-10T11:54:40.706Z,14.24
2018-11-10T11:57:08.443Z,14.34
2018-11-10T11:59:36.174Z,14.25
2018-11-10T12:02:04.048Z,14.31
2018-11-10T12:04:31.828Z,14.31
2018-11-10T12:06:59.594Z,14.36
2018-11-10T12:09:27.410Z,14.43
2018-11-10T12:11:55.195Z,14.42
2018-11-10T12:14:22.910Z,14.42
2018-11-10T12:16:50.736Z,14.41
2018-11-10T12:19:18.496Z,14.34
2018-11-10T12:21:46.284Z,14.45
2018-11-10T12:24:14.016Z,14.55
2018-11-10T12:26:41.776Z,14.48
2018-11-10T12:29:09.591Z,14.49
2018-11-10T12:31:37.391Z,14.49
2018-11-10T12:34:05.622Z,14.51
2018-11-10T12:36:33.418Z,14.50
2018-11-10T12:39:01.168Z,14.50
2018-11-10T12:41:28.907Z,14.49
2018-11-10T12:43:56.674Z,14.51
2018-11-10T12:46:24.424Z,14.47
2018-11-10T12:48:52.162Z,14.51
2018-11-10T12:51:19.913Z,14.48
2018-11-10T12:53:47.666Z,14.50
2018-11-10T12:56:15.403Z,14.54
2018-11-10T12:58:43.143Z,14.47
2018-11-10T13:01:10.911Z,14.50
2018-11-10T13:03:38.633Z,14.48
2018-11-10T13:06:06.500Z,14.48
2018-11-10T13:08:34.271Z,14.50
2018-11-10T13:11:02.096Z,14.52
2018-11-10T13:13:29.811Z,14.62
2018-11-10T13:15:57.828Z,14.82
2018-11-10T13:18:25.588Z,14.75
2018-11-10T13:20:53.375Z,16.00
2018-11-10T13:23:21.081Z,16.26
2018-11-10T13:25:48.840Z,15.96
2018-11-10T13:28:16.606Z,15.33
2018-11-10T13:30:44.393Z,15.19
2018-11-10T13:33:12.126Z,15.10
2018-11-10T13:35:39.915Z,14.99
2018-11-10T13:38:07.660Z,14.89
2018-11-10T13:40:35.417Z,14.80
2018-11-10T13:43:03.199Z,14.77
2018-11-10T13:45:30.951Z,14.70
2018-11-10T13:47:58.691Z,14.63
2018-11-10T13:50:26.453Z,14.62
2018-11-10T13:52:54.393Z,14.64
2018-11-10T13:55:22.013Z,14.63
2018-11-10T13:57:49.777Z,14.58
2018-11-10T14:00:18.344Z,14.56
2018-11-10T14:02:46.125Z,14.54
2018-11-10T14:05:14.411Z,14.56
2018-11-10T14:07:42.222Z,14.58
2018-11-10T14:10:11.757Z,14.49
2018-11-10T14:12:40.280Z,14.41
2018-11-10T14:15:08.113Z,14.25
2018-11-10T14:17:35.837Z,14.26
2018-11-10T14:20:04.431Z,14.24
2018-11-10T14:22:32.187Z,14.03
2018-11-10T14:24:59.915Z,13.96
2018-11-10T14:27:27.675Z,14.01
2018-11-10T14:29:55.477Z,14.00
2018-11-10T14:32:23.314Z,14.01
2018-11-10T14:34:51.085Z,14.00
2018-11-10T14:37:18.798Z,13.70
2018-11-10T14:39:46.526Z,13.77
2018-11-10T14:42:14.383Z,13.87
2018-11-10T14:44:42.158Z,13.83
2018-11-10T14:47:09.902Z,13.77
2018-11-10T14:49:37.634Z,13.73
2018-11-10T14:52:05.706Z,13.67
2018-11-10T14:54:33.479Z,13.68
2018-11-10T14:57:01.239Z,13.69
2018-11-10T14:59:28.970Z,13.54
2018-11-10T15:01:56.725Z,13.52
2018-11-10T15:04:24.591Z,13.50
2018-11-10T15:06:52.331Z,13.33
2018-11-10T15:09:20.073Z,13.34
2018-11-10T15:11:47.957Z,13.33
2018-11-10T15:14:15.591Z,13.25
2018-11-10T15:16:43.322Z,13.26
2018-11-10T15:19:11.114Z,13.29
2018-11-10T15:27:06.115Z,12.95
2018-11-10T15:29:33.873Z,12.91
2018-11-10T15:32:01.627Z,12.90
2018-11-10T15:34:29.354Z,12.91
2018-11-10T15:36:57.212Z,12.90
2018-11-10T15:39:24.951Z,12.84
2018-11-10T15:41:52.683Z,12.67
2018-11-10T15:44:20.395Z,12.70
2018-11-10T15:46:48.132Z,12.69
2018-11-10T15:49:15.890Z,12.73
2018-11-10T15:51:43.683Z,12.76
2018-11-10T15:54:11.411Z,12.72
2018-11-10T15:56:39.215Z,12.56
2018-11-10T15:59:07.991Z,12.49
2018-11-10T16:01:35.730Z,12.47
2018-11-10T16:04:03.486Z,12.46
2018-11-10T16:06:31.202Z,12.41
2018-11-10T16:08:58.977Z,12.40
2018-11-10T16:11:26.702Z,12.27
2018-11-10T16:13:54.426Z,12.42
2018-11-10T16:16:22.190Z,12.38
2018-11-10T16:18:49.922Z,12.29
2018-11-10T16:21:17.638Z,12.25
2018-11-10T16:23:45.376Z,12.24
2018-11-10T16:26:13.094Z,12.33
2018-11-10T16:28:40.857Z,12.33
2018-11-10T16:31:08.710Z,12.05
2018-11-10T16:33:36.531Z,12.15
2018-11-10T16:36:04.329Z,12.28
2018-11-10T16:38:32.062Z,12.31
2018-11-10T16:40:59.815Z,12.05
2018-11-10T16:43:27.558Z,12.04
2018-11-10T16:45:55.287Z,12.09
2018-11-10T16:48:23.022Z,12.16
2018-11-10T16:50:50.909Z,12.03
2018-11-10T16:53:18.666Z,12.13
2018-11-10T16:55:49.714Z,12.18
2018-11-10T16:58:17.535Z,12.24
2018-11-10T17:00:45.289Z,12.15
2018-11-10T17:03:13.023Z,11.90
2018-11-10T17:05:40.739Z,11.85
2018-11-10T17:08:08.475Z,11.94
2018-11-10T17:10:36.195Z,11.97
2018-11-10T17:13:04.635Z,11.41
2018-11-10T17:15:32.422Z,11.45
2018-11-10T17:18:00.150Z,11.70
2018-11-10T17:20:27.896Z,11.66
2018-11-10T17:22:55.625Z,11.51
2018-11-10T17:25:23.355Z,11.25
2018-11-10T17:27:51.087Z,11.25
2018-11-10T17:30:20.218Z,11.44
2018-11-10T17:32:47.898Z,11.55
2018-11-10T17:35:15.711Z,11.59
2018-11-10T17:37:43.605Z,11.58
2018-11-10T17:40:12.223Z,11.55
2018-11-10T17:42:39.886Z,11.50
2018-11-10T17:45:09.743Z,11.25
2018-11-10T17:47:38.515Z,11.29
2018-11-10T17:50:08.097Z,11.07
2018-11-10T17:52:35.959Z,11.14
2018-11-10T17:55:03.747Z,11.18
2018-11-10T17:57:31.568Z,11.22
2018-11-10T17:59:59.270Z,11.04
2018-11-10T18:02:27.018Z,11.18
2018-11-10T18:04:54.789Z,11.07
2018-11-10T18:07:22.549Z,10.92
2018-11-10T18:09:50.326Z,10.97
2018-11-10T18:12:18.079Z,10.87
2018-11-10T18:14:45.806Z,10.86
2018-11-10T18:17:13.548Z,10.97
2018-11-10T18:19:41.305Z,10.93
2018-11-10T18:22:09.179Z,11.03
2018-11-10T18:24:36.930Z,11.05
2018-11-10T18:27:04.762Z,10.82
2018-11-10T18:29:32.502Z,10.54
2018-11-10T18:32:00.250Z,10.48
2018-11-10T18:34:28.031Z,10.32
2018-11-10T18:36:55.782Z,10.70
2018-11-10T18:39:27.708Z,10.40
2018-11-10T18:41:55.498Z,10.35
2018-11-10T18:44:23.279Z,10.43
2018-11-10T18:46:51.135Z,10.31
2018-11-10T18:49:18.862Z,10.28
2018-11-10T18:51:46.638Z,9.95
2018-11-10T18:54:14.546Z,10.06
2018-11-10T18:56:42.290Z,9.96
2018-11-10T18:59:10.067Z,9.95
2018-11-10T19:01:37.883Z,9.97
2018-11-10T19:04:05.852Z,9.83
2018-11-10T19:06:33.719Z,9.88
2018-11-10T19:09:01.471Z,9.72
2018-11-10T19:11:29.291Z,9.80
2018-11-10T19:13:57.035Z,9.84
2018-11-10T19:16:24.802Z,9.50
2018-11-10T19:18:52.604Z,9.72
2018-11-10T19:21:20.406Z,9.75
2018-11-10T19:23:48.363Z,9.39
2018-11-10T19:26:19.290Z,9.32
2018-11-10T19:28:51.776Z,9.60
2018-11-10T19:31:20.446Z,9.37
2018-11-10T19:33:48.221Z,9.51
2018-11-10T19:36:15.982Z,9.45
2018-11-10T19:38:43.770Z,9.26
2018-11-10T19:41:11.511Z,9.45
2018-11-10T19:43:39.283Z,9.55
2018-11-10T19:46:07.082Z,9.12
2018-11-10T19:48:34.843Z,9.27
2018-11-10T19:51:07.321Z,9.21
2018-11-10T19:53:34.894Z,9.17
2018-11-10T19:56:02.645Z,9.30
2018-11-10T19:58:30.385Z,9.49
2018-11-10T20:00:58.140Z,9.38
2018-11-10T20:03:25.883Z,9.26
2018-11-10T20:05:53.647Z,9.27
2018-11-10T20:08:21.391Z,8.99
2018-11-10T20:10:55.492Z,9.24
2018-11-10T20:13:27.028Z,9.28
2018-11-10T20:15:54.846Z,9.00
2018-11-10T20:18:22.607Z,9.02
2018-11-10T20:20:50.326Z,8.91
2018-11-10T20:23:18.065Z,9.03
2018-11-10T20:25:45.807Z,9.01
2018-11-10T20:28:13.683Z,8.99
2018-11-10T20:30:41.468Z,8.92
2018-11-10T20:33:09.199Z,8.75
2018-11-10T20:35:36.929Z,8.90
2018-11-10T20:38:04.819Z,9.27
2018-11-10T20:40:32.566Z,9.25
2018-11-10T20:43:00.311Z,8.95
2018-11-10T20:45:28.035Z,9.07
2018-11-10T20:47:55.784Z,9.25
2018-11-10T20:50:23.528Z,8.91
2018-11-10T20:52:51.286Z,9.10
2018-11-10T20:55:19.034Z,8.76
2018-11-10T20:57:46.763Z,8.92
2018-11-10T21:00:15.982Z,8.93
2018-11-10T21:02:44.023Z,8.90
2018-11-10T21:05:12.352Z,9.04
2018-11-10T21:07:40.122Z,8.78
2018-11-10T21:10:10.750Z,8.71
2018-11-10T21:12:38.544Z,8.68
2018-11-10T21:15:06.975Z,8.65
2018-11-10T21:17:34.796Z,8.84
2018-11-10T21:20:02.845Z,9.03
2018-11-10T21:22:30.530Z,8.98
2018-11-10T21:24:58.267Z,8.64
2018-11-10T21:27:25.994Z,8.78
2018-11-10T21:29:53.746Z,8.77
2018-11-10T21:32:21.471Z,8.43
2018-11-10T21:34:49.212Z,8.36
2018-11-10T21:37:16.944Z,8.59
2018-11-10T21:39:44.666Z,8.79
2018-11-10T21:42:12.399Z,8.77
2018-11-10T21:44:40.114Z,8.34
2018-11-10T21:47:07.838Z,8.51
2018-11-10T21:49:35.615Z,8.48
2018-11-10T21:52:03.363Z,8.73
2018-11-10T21:54:31.092Z,8.77
2018-11-10T21:56:58.873Z,8.49
2018-11-10T21:59:26.606Z,8.13
2018-11-10T22:01:54.326Z,8.02
2018-11-10T22:04:22.049Z,8.80
2018-11-10T22:06:49.863Z,8.98
2018-11-10T22:09:17.773Z,8.64
2018-11-10T22:11:45.401Z,8.35
2018-11-10T22:14:13.161Z,8.78
2018-11-10T22:16:40.891Z,8.46
2018-11-10T22:19:08.633Z,8.54
2018-11-10T22:21:36.386Z,8.68
2018-11-10T22:24:04.221Z,8.46
2018-11-10T22:26:31.968Z,8.47
2018-11-10T22:28:59.705Z,8.91
2018-11-10T22:31:27.486Z,8.70
2018-11-10T22:33:55.252Z,8.43
2018-11-10T22:36:23.037Z,8.32
2018-11-10T22:38:50.774Z,8.44
2018-11-10T22:41:18.521Z,8.47
2018-11-10T22:43:46.246Z,8.24
2018-11-10T22:46:14.333Z,8.49
2018-11-10T22:48:42.143Z,8.41
2018-11-10T22:51:09.882Z,8.28
2018-11-10T22:53:37.807Z,8.32
2018-11-10T22:56:05.733Z,8.32
2018-11-10T22:58:33.459Z,8.36
2018-11-10T23:01:06.234Z,8.06
2018-11-10T23:03:34.760Z,7.75
2018-11-10T23:06:02.549Z,7.73
2018-11-10T23:08:30.342Z,7.98
2018-11-10T23:10:58.094Z,8.00
2018-11-10T23:13:25.809Z,8.00
2018-11-10T23:15:53.558Z,7.98
2018-11-10T23:18:21.302Z,7.92
2018-11-10T23:20:49.018Z,8.30
2018-11-10T23:23:16.775Z,8.30
2018-11-10T23:25:44.518Z,8.20
2018-11-10T23:28:12.242Z,8.13
2018-11-10T23:30:39.979Z,8.23
2018-11-10T23:33:07.709Z,8.09
2018-11-10T23:35:35.435Z,8.18
2018-11-10T23:38:03.167Z,8.25
2018-11-10T23:40:30.923Z,8.28
2018-11-10T23:42:58.654Z,8.00
2018-11-10T23:45:26.435Z,8.11
2018-11-10T23:47:54.171Z,8.35
2018-11-10T23:50:21.908Z,8.23
2018-11-10T23:52:49.637Z,8.38
2018-11-10T23:55:17.490Z,8.45
2018-11-10T23:57:45.307Z,8.40
